sensor_id;sensor_type;location;lat;lon;timestamp;P1;durP1;ratioP1;P2;durP2;ratioP2
11008;SDS011;5557;51.670;7.788;2023-03-01T00:01:17;13.13;;;11.83;;
11008;SDS011;5557;51.670;7.788;2023-03-01T00:03:47;13.80;;;12.60;;
11008;SDS011;5557;51.670;7.788;2023-03-01T00:06:15;11.70;;;10.60;;
11008;SDS011;5557;51.670;7.788;2023-03-01T00:08:42;12.37;;;11.40;;
11008;SDS011;5557;51.670;7.788;2023-03-01T00:11:16;13.60;;;12.40;;
11008;SDS011;5557;51.670;7.788;2023-03-01T00:13:55;14.10;;;12.90;;
11008;SDS011;5557;51.670;7.788;2023-03-01T00:16:28;13.67;;;12.30;;
11008;SDS011;5557;51.670;7.788;2023-03-01T00:18:57;14.53;;;13.23;;
11008;SDS011;5557;51.670;7.788;2023-03-01T00:21:24;13.83;;;12.60;;
11008;SDS011;5557;51.670;7.788;2023-03-01T00:23:53;13.13;;;12.03;;
11008;SDS011;5557;51.670;7.788;2023-03-01T00:26:21;14.90;;;13.00;;
11008;SDS011;5557;51.670;7.788;2023-03-01T00:28:50;13.87;;;12.50;;
11008;SDS011;5557;51.670;7.788;2023-03-01T00:31:21;14.80;;;13.60;;
11008;SDS011;5557;51.670;7.788;2023-03-01T00:33:51;14.77;;;13.37;;
11008;SDS011;5557;51.670;7.788;2023-03-01T00:36:23;13.13;;;12.13;;
11008;SDS011;5557;51.670;7.788;2023-03-01T00:38:51;12.17;;;11.27;;
11008;SDS011;5557;51.670;7.788;2023-03-01T00:41:19;12.70;;;11.60;;
11008;SDS011;5557;51.670;7.788;2023-03-01T00:43:49;13.37;;;12.30;;
11008;SDS011;5557;51.670;7.788;2023-03-01T00:46:18;12.23;;;11.17;;
11008;SDS011;5557;51.670;7.788;2023-03-01T00:48:47;12.63;;;11.47;;
11008;SDS011;5557;51.670;7.788;2023-03-01T00:51:15;14.67;;;13.27;;
11008;SDS011;5557;51.670;7.788;2023-03-01T00:53:45;13.50;;;12.33;;
11008;SDS011;5557;51.670;7.788;2023-03-01T00:56:12;13.77;;;12.33;;
11008;SDS011;5557;51.670;7.788;2023-03-01T00:58:41;14.33;;;12.80;;
11008;SDS011;5557;51.670;7.788;2023-03-01T01:01:12;14.70;;;12.33;;
11008;SDS011;5557;51.670;7.788;2023-03-01T01:03:47;14.70;;;13.20;;
11008;SDS011;5557;51.670;7.788;2023-03-01T01:06:29;17.70;;;15.90;;
11008;SDS011;5557;51.670;7.788;2023-03-01T01:08:59;18.93;;;17.23;;
11008;SDS011;5557;51.670;7.788;2023-03-01T01:11:27;16.70;;;15.07;;
11008;SDS011;5557;51.670;7.788;2023-03-01T01:13:55;37.80;;;27.43;;
11008;SDS011;5557;51.670;7.788;2023-03-01T01:16:23;23.80;;;21.30;;
11008;SDS011;5557;51.670;7.788;2023-03-01T01:18:52;18.87;;;16.97;;
11008;SDS011;5557;51.670;7.788;2023-03-01T01:21:20;16.03;;;14.53;;
11008;SDS011;5557;51.670;7.788;2023-03-01T01:23:49;20.20;;;17.50;;
11008;SDS011;5557;51.670;7.788;2023-03-01T01:26:27;16.07;;;14.57;;
11008;SDS011;5557;51.670;7.788;2023-03-01T01:28:56;17.17;;;15.67;;
11008;SDS011;5557;51.670;7.788;2023-03-01T01:31:23;19.93;;;17.83;;
11008;SDS011;5557;51.670;7.788;2023-03-01T01:33:51;18.73;;;17.03;;
11008;SDS011;5557;51.670;7.788;2023-03-01T01:36:19;16.50;;;15.10;;
11008;SDS011;5557;51.670;7.788;2023-03-01T01:38:46;14.10;;;13.03;;
11008;SDS011;5557;51.670;7.788;2023-03-01T01:41:14;13.93;;;12.43;;
11008;SDS011;5557;51.670;7.788;2023-03-01T01:43:42;14.13;;;12.83;;
11008;SDS011;5557;51.670;7.788;2023-03-01T01:46:30;13.27;;;12.17;;
11008;SDS011;5557;51.670;7.788;2023-03-01T01:49:35;13.77;;;12.77;;
11008;SDS011;5557;51.670;7.788;2023-03-01T01:52:09;12.53;;;11.33;;
11008;SDS011;5557;51.670;7.788;2023-03-01T01:57:37;29.40;;;22.60;;
11008;SDS011;5557;51.670;7.788;2023-03-01T02:00:20;16.77;;;15.10;;
11008;SDS011;5557;51.670;7.788;2023-03-01T02:02:55;15.00;;;13.60;;
11008;SDS011;5557;51.670;7.788;2023-03-01T02:08:36;15.17;;;13.67;;
11008;SDS011;5557;51.670;7.788;2023-03-01T02:11:06;16.97;;;15.33;;
11008;SDS011;5557;51.670;7.788;2023-03-01T02:13:35;16.50;;;15.00;;
11008;SDS011;5557;51.670;7.788;2023-03-01T02:16:05;16.90;;;15.17;;
11008;SDS011;5557;51.670;7.788;2023-03-01T02:18:35;15.20;;;13.90;;
11008;SDS011;5557;51.670;7.788;2023-03-01T02:26:57;15.13;;;13.73;;
11008;SDS011;5557;51.670;7.788;2023-03-01T02:29:25;14.83;;;13.20;;
11008;SDS011;5557;51.670;7.788;2023-03-01T02:31:54;13.90;;;12.67;;
11008;SDS011;5557;51.670;7.788;2023-03-01T02:34:24;14.50;;;13.10;;
11008;SDS011;5557;51.670;7.788;2023-03-01T02:37:02;18.43;;;16.87;;
11008;SDS011;5557;51.670;7.788;2023-03-01T02:39:34;18.87;;;16.87;;
11008;SDS011;5557;51.670;7.788;2023-03-01T02:42:12;16.47;;;14.77;;
11008;SDS011;5557;51.670;7.788;2023-03-01T02:44:41;15.30;;;14.20;;
11008;SDS011;5557;51.670;7.788;2023-03-01T02:47:09;13.80;;;12.80;;
11008;SDS011;5557;51.670;7.788;2023-03-01T02:49:36;15.67;;;13.97;;
11008;SDS011;5557;51.670;7.788;2023-03-01T02:52:23;15.20;;;12.90;;
11008;SDS011;5557;51.670;7.788;2023-03-01T02:55:01;13.43;;;12.23;;
11008;SDS011;5557;51.670;7.788;2023-03-01T02:57:40;14.33;;;13.13;;
11008;SDS011;5557;51.670;7.788;2023-03-01T03:00:13;15.23;;;12.60;;
11008;SDS011;5557;51.670;7.788;2023-03-01T03:02:50;13.40;;;12.37;;
11008;SDS011;5557;51.670;7.788;2023-03-01T03:05:19;12.73;;;11.70;;
11008;SDS011;5557;51.670;7.788;2023-03-01T03:07:51;13.77;;;12.67;;
11008;SDS011;5557;51.670;7.788;2023-03-01T03:10:26;14.57;;;13.27;;
11008;SDS011;5557;51.670;7.788;2023-03-01T03:13:02;12.77;;;11.90;;
11008;SDS011;5557;51.670;7.788;2023-03-01T03:15:31;14.90;;;13.77;;
11008;SDS011;5557;51.670;7.788;2023-03-01T03:17:58;13.80;;;12.47;;
11008;SDS011;5557;51.670;7.788;2023-03-01T03:20:27;14.10;;;12.80;;
11008;SDS011;5557;51.670;7.788;2023-03-01T03:22:55;13.90;;;12.80;;
11008;SDS011;5557;51.670;7.788;2023-03-01T03:25:24;14.33;;;13.20;;
11008;SDS011;5557;51.670;7.788;2023-03-01T03:27:53;14.43;;;13.07;;
11008;SDS011;5557;51.670;7.788;2023-03-01T03:30:28;15.00;;;13.80;;
11008;SDS011;5557;51.670;7.788;2023-03-01T03:32:57;14.57;;;13.20;;
11008;SDS011;5557;51.670;7.788;2023-03-01T03:35:27;16.50;;;14.97;;
11008;SDS011;5557;51.670;7.788;2023-03-01T03:37:57;15.60;;;14.30;;
11008;SDS011;5557;51.670;7.788;2023-03-01T03:40:30;16.60;;;14.90;;
11008;SDS011;5557;51.670;7.788;2023-03-01T03:43:08;14.90;;;13.77;;
11008;SDS011;5557;51.670;7.788;2023-03-01T03:45:46;14.90;;;13.60;;
11008;SDS011;5557;51.670;7.788;2023-03-01T03:48:14;16.07;;;14.47;;
11008;SDS011;5557;51.670;7.788;2023-03-01T03:50:46;15.20;;;13.90;;
11008;SDS011;5557;51.670;7.788;2023-03-01T03:53:15;15.80;;;14.20;;
11008;SDS011;5557;51.670;7.788;2023-03-01T03:55:42;15.40;;;14.10;;
11008;SDS011;5557;51.670;7.788;2023-03-01T03:58:11;18.03;;;15.00;;
11008;SDS011;5557;51.670;7.788;2023-03-01T04:00:39;14.80;;;13.60;;
11008;SDS011;5557;51.670;7.788;2023-03-01T04:03:07;22.30;;;14.70;;
11008;SDS011;5557;51.670;7.788;2023-03-01T04:05:36;16.70;;;14.93;;
11008;SDS011;5557;51.670;7.788;2023-03-01T04:08:03;15.97;;;14.47;;
11008;SDS011;5557;51.670;7.788;2023-03-01T04:10:35;15.90;;;14.50;;
11008;SDS011;5557;51.670;7.788;2023-03-01T04:13:07;17.07;;;15.27;;
11008;SDS011;5557;51.670;7.788;2023-03-01T04:15:36;16.57;;;14.97;;
11008;SDS011;5557;51.670;7.788;2023-03-01T04:18:03;17.70;;;15.90;;
11008;SDS011;5557;51.670;7.788;2023-03-01T04:20:32;17.07;;;15.57;;
11008;SDS011;5557;51.670;7.788;2023-03-01T04:23:02;16.60;;;15.07;;
11008;SDS011;5557;51.670;7.788;2023-03-01T04:25:38;17.20;;;15.23;;
11008;SDS011;5557;51.670;7.788;2023-03-01T04:28:26;15.90;;;14.40;;
11008;SDS011;5557;51.670;7.788;2023-03-01T04:30:55;16.50;;;14.97;;
11008;SDS011;5557;51.670;7.788;2023-03-01T04:33:23;15.73;;;14.23;;
11008;SDS011;5557;51.670;7.788;2023-03-01T04:35:51;16.33;;;14.83;;
11008;SDS011;5557;51.670;7.788;2023-03-01T04:38:19;18.17;;;16.27;;
11008;SDS011;5557;51.670;7.788;2023-03-01T04:40:47;18.17;;;15.70;;
11008;SDS011;5557;51.670;7.788;2023-03-01T04:43:14;16.37;;;14.87;;
11008;SDS011;5557;51.670;7.788;2023-03-01T04:45:41;16.00;;;14.70;;
11008;SDS011;5557;51.670;7.788;2023-03-01T04:48:09;20.23;;;18.47;;
11008;SDS011;5557;51.670;7.788;2023-03-01T04:50:36;21.90;;;19.77;;
11008;SDS011;5557;51.670;7.788;2023-03-01T04:53:03;19.33;;;17.50;;
11008;SDS011;5557;51.670;7.788;2023-03-01T04:55:30;17.63;;;16.10;;
11008;SDS011;5557;51.670;7.788;2023-03-01T04:57:57;20.73;;;18.70;;
11008;SDS011;5557;51.670;7.788;2023-03-01T05:00:25;15.90;;;14.50;;
11008;SDS011;5557;51.670;7.788;2023-03-01T05:02:56;16.43;;;14.83;;
11008;SDS011;5557;51.670;7.788;2023-03-01T05:05:30;17.50;;;15.73;;
11008;SDS011;5557;51.670;7.788;2023-03-01T05:08:03;17.40;;;15.90;;
11008;SDS011;5557;51.670;7.788;2023-03-01T05:10:33;17.60;;;16.03;;
11008;SDS011;5557;51.670;7.788;2023-03-01T05:13:02;19.97;;;18.10;;
11008;SDS011;5557;51.670;7.788;2023-03-01T05:15:30;21.23;;;19.13;;
11008;SDS011;5557;51.670;7.788;2023-03-01T05:17:58;16.90;;;15.40;;
11008;SDS011;5557;51.670;7.788;2023-03-01T05:20:27;19.33;;;17.73;;
11008;SDS011;5557;51.670;7.788;2023-03-01T05:22:55;21.10;;;18.80;;
11008;SDS011;5557;51.670;7.788;2023-03-01T05:25:25;20.60;;;18.50;;
11008;SDS011;5557;51.670;7.788;2023-03-01T05:27:52;19.73;;;17.80;;
11008;SDS011;5557;51.670;7.788;2023-03-01T05:30:19;19.37;;;17.50;;
11008;SDS011;5557;51.670;7.788;2023-03-01T05:32:49;25.13;;;18.80;;
11008;SDS011;5557;51.670;7.788;2023-03-01T05:35:22;17.53;;;15.90;;
11008;SDS011;5557;51.670;7.788;2023-03-01T05:37:49;17.83;;;16.37;;
11008;SDS011;5557;51.670;7.788;2023-03-01T05:40:23;19.20;;;17.40;;
11008;SDS011;5557;51.670;7.788;2023-03-01T05:42:54;18.80;;;17.10;;
11008;SDS011;5557;51.670;7.788;2023-03-01T05:45:23;18.87;;;17.37;;
11008;SDS011;5557;51.670;7.788;2023-03-01T05:47:51;21.50;;;17.50;;
11008;SDS011;5557;51.670;7.788;2023-03-01T05:50:20;19.50;;;17.17;;
11008;SDS011;5557;51.670;7.788;2023-03-01T05:52:54;19.20;;;17.13;;
11008;SDS011;5557;51.670;7.788;2023-03-01T05:55:42;20.50;;;18.40;;
11008;SDS011;5557;51.670;7.788;2023-03-01T05:58:11;24.43;;;18.43;;
11008;SDS011;5557;51.670;7.788;2023-03-01T06:00:40;20.20;;;18.30;;
11008;SDS011;5557;51.670;7.788;2023-03-01T06:03:09;26.50;;;19.60;;
11008;SDS011;5557;51.670;7.788;2023-03-01T06:05:38;21.10;;;18.50;;
11008;SDS011;5557;51.670;7.788;2023-03-01T06:08:06;20.30;;;18.10;;
11008;SDS011;5557;51.670;7.788;2023-03-01T06:10:33;25.67;;;19.77;;
11008;SDS011;5557;51.670;7.788;2023-03-01T06:13:00;21.93;;;19.63;;
11008;SDS011;5557;51.670;7.788;2023-03-01T06:15:27;26.27;;;19.20;;
11008;SDS011;5557;51.670;7.788;2023-03-01T06:17:54;24.80;;;18.57;;
11008;SDS011;5557;51.670;7.788;2023-03-01T06:20:26;23.13;;;18.77;;
11008;SDS011;5557;51.670;7.788;2023-03-01T06:22:54;21.47;;;19.20;;
11008;SDS011;5557;51.670;7.788;2023-03-01T06:25:22;20.67;;;18.60;;
11008;SDS011;5557;51.670;7.788;2023-03-01T06:27:50;22.47;;;20.13;;
11008;SDS011;5557;51.670;7.788;2023-03-01T06:30:19;22.93;;;19.07;;
11008;SDS011;5557;51.670;7.788;2023-03-01T06:32:48;30.20;;;24.00;;
11008;SDS011;5557;51.670;7.788;2023-03-01T06:35:16;25.20;;;20.50;;
11008;SDS011;5557;51.670;7.788;2023-03-01T06:37:44;25.23;;;19.47;;
11008;SDS011;5557;51.670;7.788;2023-03-01T06:40:12;21.43;;;19.13;;
11008;SDS011;5557;51.670;7.788;2023-03-01T06:42:41;24.70;;;18.90;;
11008;SDS011;5557;51.670;7.788;2023-03-01T06:45:13;22.60;;;17.37;;
11008;SDS011;5557;51.670;7.788;2023-03-01T06:47:40;22.10;;;17.07;;
11008;SDS011;5557;51.670;7.788;2023-03-01T06:50:07;26.67;;;16.43;;
11008;SDS011;5557;51.670;7.788;2023-03-01T06:52:35;18.23;;;14.80;;
11008;SDS011;5557;51.670;7.788;2023-03-01T06:55:02;18.03;;;13.33;;
11008;SDS011;5557;51.670;7.788;2023-03-01T06:57:30;23.60;;;13.93;;
11008;SDS011;5557;51.670;7.788;2023-03-01T06:59:56;26.53;;;13.77;;
11008;SDS011;5557;51.670;7.788;2023-03-01T07:02:23;21.30;;;11.97;;
11008;SDS011;5557;51.670;7.788;2023-03-01T07:04:51;19.47;;;13.03;;
11008;SDS011;5557;51.670;7.788;2023-03-01T07:07:18;19.50;;;13.60;;
11008;SDS011;5557;51.670;7.788;2023-03-01T07:09:45;15.67;;;12.90;;
11008;SDS011;5557;51.670;7.788;2023-03-01T07:12:13;20.20;;;13.33;;
11008;SDS011;5557;51.670;7.788;2023-03-01T07:14:40;21.90;;;14.27;;
11008;SDS011;5557;51.670;7.788;2023-03-01T07:17:07;20.60;;;13.07;;
11008;SDS011;5557;51.670;7.788;2023-03-01T07:19:34;19.37;;;13.37;;
11008;SDS011;5557;51.670;7.788;2023-03-01T07:22:01;20.47;;;12.43;;
11008;SDS011;5557;51.670;7.788;2023-03-01T07:24:30;13.87;;;11.87;;
11008;SDS011;5557;51.670;7.788;2023-03-01T07:26:57;14.77;;;12.10;;
11008;SDS011;5557;51.670;7.788;2023-03-01T07:29:24;19.03;;;12.63;;
11008;SDS011;5557;51.670;7.788;2023-03-01T07:31:51;15.30;;;11.60;;
11008;SDS011;5557;51.670;7.788;2023-03-01T07:34:18;14.60;;;12.03;;
11008;SDS011;5557;51.670;7.788;2023-03-01T07:36:45;15.90;;;11.90;;
11008;SDS011;5557;51.670;7.788;2023-03-01T07:39:12;15.63;;;10.13;;
11008;SDS011;5557;51.670;7.788;2023-03-01T07:41:39;15.60;;;11.13;;
11008;SDS011;5557;51.670;7.788;2023-03-01T07:44:06;14.03;;;10.50;;
11008;SDS011;5557;51.670;7.788;2023-03-01T07:46:32;14.23;;;10.43;;
11008;SDS011;5557;51.670;7.788;2023-03-01T07:49:00;10.23;;;9.23;;
11008;SDS011;5557;51.670;7.788;2023-03-01T07:51:27;10.40;;;9.40;;
11008;SDS011;5557;51.670;7.788;2023-03-01T07:53:54;11.17;;;9.90;;
11008;SDS011;5557;51.670;7.788;2023-03-01T07:56:21;9.47;;;8.60;;
11008;SDS011;5557;51.670;7.788;2023-03-01T07:58:48;15.17;;;10.50;;
11008;SDS011;5557;51.670;7.788;2023-03-01T08:01:17;10.10;;;9.07;;
11008;SDS011;5557;51.670;7.788;2023-03-01T08:03:45;10.17;;;9.27;;
11008;SDS011;5557;51.670;7.788;2023-03-01T08:06:14;11.00;;;9.53;;
11008;SDS011;5557;51.670;7.788;2023-03-01T08:08:41;16.07;;;9.20;;
11008;SDS011;5557;51.670;7.788;2023-03-01T08:11:10;10.50;;;8.13;;
11008;SDS011;5557;51.670;7.788;2023-03-01T08:13:38;12.70;;;9.20;;
11008;SDS011;5557;51.670;7.788;2023-03-01T08:16:07;12.27;;;8.93;;
11008;SDS011;5557;51.670;7.788;2023-03-01T08:18:36;9.83;;;8.70;;
11008;SDS011;5557;51.670;7.788;2023-03-01T08:21:14;11.13;;;8.70;;
11008;SDS011;5557;51.670;7.788;2023-03-01T08:23:42;10.40;;;8.60;;
11008;SDS011;5557;51.670;7.788;2023-03-01T08:26:11;11.27;;;9.00;;
11008;SDS011;5557;51.670;7.788;2023-03-01T08:28:47;18.40;;;9.83;;
11008;SDS011;5557;51.670;7.788;2023-03-01T08:31:36;10.17;;;8.10;;
11008;SDS011;5557;51.670;7.788;2023-03-01T08:34:05;12.53;;;9.60;;
11008;SDS011;5557;51.670;7.788;2023-03-01T08:36:37;10.23;;;8.63;;
11008;SDS011;5557;51.670;7.788;2023-03-01T08:39:06;8.93;;;8.03;;
11008;SDS011;5557;51.670;7.788;2023-03-01T08:41:34;12.30;;;8.17;;
11008;SDS011;5557;51.670;7.788;2023-03-01T08:44:01;11.50;;;8.63;;
11008;SDS011;5557;51.670;7.788;2023-03-01T08:46:29;12.80;;;8.50;;
11008;SDS011;5557;51.670;7.788;2023-03-01T08:49:05;13.67;;;9.27;;
11008;SDS011;5557;51.670;7.788;2023-03-01T08:51:35;15.03;;;8.80;;
11008;SDS011;5557;51.670;7.788;2023-03-01T08:54:06;17.73;;;9.20;;
11008;SDS011;5557;51.670;7.788;2023-03-01T08:56:37;10.20;;;9.20;;
11008;SDS011;5557;51.670;7.788;2023-03-01T08:59:05;11.73;;;8.07;;
11008;SDS011;5557;51.670;7.788;2023-03-01T09:01:31;13.03;;;8.53;;
11008;SDS011;5557;51.670;7.788;2023-03-01T09:03:58;11.93;;;8.20;;
11008;SDS011;5557;51.670;7.788;2023-03-01T09:06:25;8.50;;;7.73;;
11008;SDS011;5557;51.670;7.788;2023-03-01T09:08:52;9.70;;;7.00;;
11008;SDS011;5557;51.670;7.788;2023-03-01T09:11:21;11.73;;;7.53;;
11008;SDS011;5557;51.670;7.788;2023-03-01T09:13:48;10.07;;;8.37;;
11008;SDS011;5557;51.670;7.788;2023-03-01T09:16:17;8.93;;;7.90;;
11008;SDS011;5557;51.670;7.788;2023-03-01T09:18:48;12.70;;;7.90;;
11008;SDS011;5557;51.670;7.788;2023-03-01T09:21:17;7.30;;;6.63;;
11008;SDS011;5557;51.670;7.788;2023-03-01T09:24:04;8.20;;;7.23;;
11008;SDS011;5557;51.670;7.788;2023-03-01T09:26:31;8.30;;;7.43;;
11008;SDS011;5557;51.670;7.788;2023-03-01T09:28:59;14.47;;;8.10;;
11008;SDS011;5557;51.670;7.788;2023-03-01T09:31:26;9.00;;;7.50;;
11008;SDS011;5557;51.670;7.788;2023-03-01T09:33:53;14.03;;;7.60;;
11008;SDS011;5557;51.670;7.788;2023-03-01T09:36:22;14.70;;;6.80;;
11008;SDS011;5557;51.670;7.788;2023-03-01T09:38:51;8.00;;;6.97;;
11008;SDS011;5557;51.670;7.788;2023-03-01T09:44:45;7.40;;;6.80;;
11008;SDS011;5557;51.670;7.788;2023-03-01T09:47:19;6.10;;;5.60;;
11008;SDS011;5557;51.670;7.788;2023-03-01T09:49:56;9.90;;;7.10;;
11008;SDS011;5557;51.670;7.788;2023-03-01T09:53:21;7.00;;;6.30;;
11008;SDS011;5557;51.670;7.788;2023-03-01T09:58:46;6.93;;;6.43;;
11008;SDS011;5557;51.670;7.788;2023-03-01T10:01:27;7.90;;;7.10;;
11008;SDS011;5557;51.670;7.788;2023-03-01T10:06:50;8.57;;;6.33;;
11008;SDS011;5557;51.670;7.788;2023-03-01T10:09:29;6.73;;;5.73;;
11008;SDS011;5557;51.670;7.788;2023-03-01T10:12:00;18.50;;;6.20;;
11008;SDS011;5557;51.670;7.788;2023-03-01T10:14:35;7.23;;;5.80;;
11008;SDS011;5557;51.670;7.788;2023-03-01T10:17:37;8.83;;;5.50;;
11008;SDS011;5557;51.670;7.788;2023-03-01T10:23:32;6.17;;;5.67;;
11008;SDS011;5557;51.670;7.788;2023-03-01T10:29:17;7.17;;;6.40;;
11008;SDS011;5557;51.670;7.788;2023-03-01T10:31:50;8.00;;;6.67;;
11008;SDS011;5557;51.670;7.788;2023-03-01T10:34:22;7.03;;;5.90;;
11008;SDS011;5557;51.670;7.788;2023-03-01T10:37:11;6.70;;;6.10;;
11008;SDS011;5557;51.670;7.788;2023-03-01T10:39:54;11.60;;;6.33;;
11008;SDS011;5557;51.670;7.788;2023-03-01T10:42:38;7.27;;;6.53;;
11008;SDS011;5557;51.670;7.788;2023-03-01T10:54:26;8.57;;;7.70;;
11008;SDS011;5557;51.670;7.788;2023-03-01T10:56:20;7.77;;;6.77;;
11008;SDS011;5557;51.670;7.788;2023-03-01T10:59:00;7.37;;;6.77;;
11008;SDS011;5557;51.670;7.788;2023-03-01T11:01:32;7.70;;;6.67;;
11008;SDS011;5557;51.670;7.788;2023-03-01T11:06:46;9.97;;;7.40;;
11008;SDS011;5557;51.670;7.788;2023-03-01T11:09:25;9.30;;;7.23;;
11008;SDS011;5557;51.670;7.788;2023-03-01T11:12:00;14.00;;;8.40;;
11008;SDS011;5557;51.670;7.788;2023-03-01T11:14:27;12.50;;;7.60;;
11008;SDS011;5557;51.670;7.788;2023-03-01T11:17:02;7.53;;;6.73;;
11008;SDS011;5557;51.670;7.788;2023-03-01T11:19:32;8.77;;;7.53;;
11008;SDS011;5557;51.670;7.788;2023-03-01T11:22:01;7.60;;;6.90;;
11008;SDS011;5557;51.670;7.788;2023-03-01T11:24:47;7.30;;;6.63;;
11008;SDS011;5557;51.670;7.788;2023-03-01T11:27:35;10.03;;;6.33;;
11008;SDS011;5557;51.670;7.788;2023-03-01T11:30:13;9.93;;;6.13;;
11008;SDS011;5557;51.670;7.788;2023-03-01T11:33:08;8.47;;;7.63;;
11008;SDS011;5557;51.670;7.788;2023-03-01T11:36:00;8.47;;;7.03;;
11008;SDS011;5557;51.670;7.788;2023-03-01T11:38:28;11.50;;;7.90;;
11008;SDS011;5557;51.670;7.788;2023-03-01T11:43:42;9.40;;;7.00;;
11008;SDS011;5557;51.670;7.788;2023-03-01T11:49:32;10.10;;;7.23;;
11008;SDS011;5557;51.670;7.788;2023-03-01T11:59:45;13.87;;;7.37;;
11008;SDS011;5557;51.670;7.788;2023-03-01T12:06:19;10.50;;;7.57;;
11008;SDS011;5557;51.670;7.788;2023-03-01T12:08:43;8.97;;;8.07;;
11008;SDS011;5557;51.670;7.788;2023-03-01T12:11:51;9.03;;;8.23;;
11008;SDS011;5557;51.670;7.788;2023-03-01T12:14:34;9.40;;;7.40;;
11008;SDS011;5557;51.670;7.788;2023-03-01T12:17:35;8.53;;;7.60;;
11008;SDS011;5557;51.670;7.788;2023-03-01T12:29:22;10.50;;;7.83;;
11008;SDS011;5557;51.670;7.788;2023-03-01T12:32:00;8.73;;;7.83;;
11008;SDS011;5557;51.670;7.788;2023-03-01T12:44:39;8.37;;;7.47;;
11008;SDS011;5557;51.670;7.788;2023-03-01T12:49:50;6.40;;;5.80;;
11008;SDS011;5557;51.670;7.788;2023-03-01T12:52:46;8.00;;;7.20;;
11008;SDS011;5557;51.670;7.788;2023-03-01T12:55:31;6.87;;;6.33;;
11008;SDS011;5557;51.670;7.788;2023-03-01T12:58:22;7.00;;;6.50;;
11008;SDS011;5557;51.670;7.788;2023-03-01T13:01:22;7.10;;;6.40;;
11008;SDS011;5557;51.670;7.788;2023-03-01T13:04:45;8.20;;;7.00;;
11008;SDS011;5557;51.670;7.788;2023-03-01T13:10:39;7.67;;;5.97;;
11008;SDS011;5557;51.670;7.788;2023-03-01T13:13:22;7.00;;;5.83;;
11008;SDS011;5557;51.670;7.788;2023-03-01T13:15:52;7.90;;;7.03;;
11008;SDS011;5557;51.670;7.788;2023-03-01T13:18:28;8.43;;;6.50;;
11008;SDS011;5557;51.670;7.788;2023-03-01T13:20:57;7.97;;;6.97;;
11008;SDS011;5557;51.670;7.788;2023-03-01T13:23:27;8.07;;;7.30;;
11008;SDS011;5557;51.670;7.788;2023-03-01T13:26:05;9.43;;;7.50;;
11008;SDS011;5557;51.670;7.788;2023-03-01T13:28:55;8.43;;;7.63;;
11008;SDS011;5557;51.670;7.788;2023-03-01T13:33:53;8.07;;;7.23;;
11008;SDS011;5557;51.670;7.788;2023-03-01T13:42:31;7.23;;;6.53;;
11008;SDS011;5557;51.670;7.788;2023-03-01T13:45:22;6.90;;;6.40;;
11008;SDS011;5557;51.670;7.788;2023-03-01T13:48:11;8.10;;;7.40;;
11008;SDS011;5557;51.670;7.788;2023-03-01T13:50:46;7.07;;;6.47;;
11008;SDS011;5557;51.670;7.788;2023-03-01T13:53:21;8.50;;;7.07;;
11008;SDS011;5557;51.670;7.788;2023-03-01T13:55:51;9.30;;;7.63;;
11008;SDS011;5557;51.670;7.788;2023-03-01T13:58:25;9.53;;;7.70;;
11008;SDS011;5557;51.670;7.788;2023-03-01T14:00:56;8.07;;;6.77;;
11008;SDS011;5557;51.670;7.788;2023-03-01T14:03:31;8.33;;;7.53;;
11008;SDS011;5557;51.670;7.788;2023-03-01T14:06:04;7.10;;;6.30;;
11008;SDS011;5557;51.670;7.788;2023-03-01T14:08:41;11.77;;;6.37;;
11008;SDS011;5557;51.670;7.788;2023-03-01T14:18:17;6.47;;;5.87;;
11008;SDS011;5557;51.670;7.788;2023-03-01T14:20:42;6.17;;;5.53;;
11008;SDS011;5557;51.670;7.788;2023-03-01T14:23:12;10.40;;;7.27;;
11008;SDS011;5557;51.670;7.788;2023-03-01T14:25:51;6.17;;;5.57;;
11008;SDS011;5557;51.670;7.788;2023-03-01T14:28:21;6.03;;;5.60;;
11008;SDS011;5557;51.670;7.788;2023-03-01T14:30:58;8.13;;;6.70;;
11008;SDS011;5557;51.670;7.788;2023-03-01T14:33:30;6.13;;;5.63;;
11008;SDS011;5557;51.670;7.788;2023-03-01T14:36:08;6.20;;;5.20;;
11008;SDS011;5557;51.670;7.788;2023-03-01T14:38:38;6.73;;;5.47;;
11008;SDS011;5557;51.670;7.788;2023-03-01T14:41:11;8.63;;;5.10;;
11008;SDS011;5557;51.670;7.788;2023-03-01T14:43:46;5.63;;;4.63;;
11008;SDS011;5557;51.670;7.788;2023-03-01T14:46:20;7.10;;;5.60;;
11008;SDS011;5557;51.670;7.788;2023-03-01T14:48:51;5.90;;;5.00;;
11008;SDS011;5557;51.670;7.788;2023-03-01T14:51:21;5.50;;;5.10;;
11008;SDS011;5557;51.670;7.788;2023-03-01T14:53:49;7.57;;;4.93;;
11008;SDS011;5557;51.670;7.788;2023-03-01T14:56:17;5.10;;;4.80;;
11008;SDS011;5557;51.670;7.788;2023-03-01T14:58:45;5.60;;;4.27;;
11008;SDS011;5557;51.670;7.788;2023-03-01T15:01:15;5.63;;;4.97;;
11008;SDS011;5557;51.670;7.788;2023-03-01T15:03:44;5.93;;;4.60;;
11008;SDS011;5557;51.670;7.788;2023-03-01T15:06:20;5.00;;;4.60;;
11008;SDS011;5557;51.670;7.788;2023-03-01T15:08:52;7.87;;;4.73;;
11008;SDS011;5557;51.670;7.788;2023-03-01T15:11:27;5.90;;;5.37;;
11008;SDS011;5557;51.670;7.788;2023-03-01T15:13:59;4.77;;;4.47;;
11008;SDS011;5557;51.670;7.788;2023-03-01T15:16:30;4.70;;;4.30;;
11008;SDS011;5557;51.670;7.788;2023-03-01T15:19:00;4.50;;;4.20;;
11008;SDS011;5557;51.670;7.788;2023-03-01T15:21:33;11.13;;;4.90;;
11008;SDS011;5557;51.670;7.788;2023-03-01T15:24:16;4.73;;;4.33;;
11008;SDS011;5557;51.670;7.788;2023-03-01T15:27:04;5.27;;;4.90;;
11008;SDS011;5557;51.670;7.788;2023-03-01T15:29:34;5.87;;;5.37;;
11008;SDS011;5557;51.670;7.788;2023-03-01T15:32:23;5.07;;;4.70;;
11008;SDS011;5557;51.670;7.788;2023-03-01T15:38:25;6.57;;;5.30;;
11008;SDS011;5557;51.670;7.788;2023-03-01T15:40:53;5.13;;;4.63;;
11008;SDS011;5557;51.670;7.788;2023-03-01T15:43:41;11.10;;;6.17;;
11008;SDS011;5557;51.670;7.788;2023-03-01T15:46:32;6.27;;;5.60;;
11008;SDS011;5557;51.670;7.788;2023-03-01T15:49:00;5.50;;;5.10;;
11008;SDS011;5557;51.670;7.788;2023-03-01T15:51:34;6.40;;;5.80;;
11008;SDS011;5557;51.670;7.788;2023-03-01T15:54:23;5.37;;;4.87;;
11008;SDS011;5557;51.670;7.788;2023-03-01T15:56:51;5.50;;;5.20;;
11008;SDS011;5557;51.670;7.788;2023-03-01T15:59:18;12.33;;;4.87;;
11008;SDS011;5557;51.670;7.788;2023-03-01T16:01:45;5.03;;;4.50;;
11008;SDS011;5557;51.670;7.788;2023-03-01T16:04:15;5.90;;;5.23;;
11008;SDS011;5557;51.670;7.788;2023-03-01T16:06:50;7.13;;;4.73;;
11008;SDS011;5557;51.670;7.788;2023-03-01T16:09:21;4.23;;;4.00;;
11008;SDS011;5557;51.670;7.788;2023-03-01T16:11:49;7.43;;;4.40;;
11008;SDS011;5557;51.670;7.788;2023-03-01T16:14:17;5.07;;;4.67;;
11008;SDS011;5557;51.670;7.788;2023-03-01T16:16:45;4.90;;;4.60;;
11008;SDS011;5557;51.670;7.788;2023-03-01T16:19:14;4.43;;;4.13;;
11008;SDS011;5557;51.670;7.788;2023-03-01T16:21:42;5.70;;;4.70;;
11008;SDS011;5557;51.670;7.788;2023-03-01T16:24:13;8.97;;;5.20;;
11008;SDS011;5557;51.670;7.788;2023-03-01T16:26:40;5.20;;;4.80;;
11008;SDS011;5557;51.670;7.788;2023-03-01T16:29:08;6.23;;;5.00;;
11008;SDS011;5557;51.670;7.788;2023-03-01T16:31:35;5.50;;;4.90;;
11008;SDS011;5557;51.670;7.788;2023-03-01T16:34:02;5.90;;;5.43;;
11008;SDS011;5557;51.670;7.788;2023-03-01T16:36:30;8.03;;;6.07;;
11008;SDS011;5557;51.670;7.788;2023-03-01T16:38:58;5.10;;;4.70;;
11008;SDS011;5557;51.670;7.788;2023-03-01T16:41:29;4.83;;;4.40;;
11008;SDS011;5557;51.670;7.788;2023-03-01T16:43:57;7.00;;;4.80;;
11008;SDS011;5557;51.670;7.788;2023-03-01T16:46:25;9.80;;;5.50;;
11008;SDS011;5557;51.670;7.788;2023-03-01T16:48:54;11.47;;;5.37;;
11008;SDS011;5557;51.670;7.788;2023-03-01T16:51:22;4.27;;;3.97;;
11008;SDS011;5557;51.670;7.788;2023-03-01T16:53:50;6.00;;;5.40;;
11008;SDS011;5557;51.670;7.788;2023-03-01T16:56:17;7.73;;;5.50;;